METAR Data
IDs: Format: Raw Decoded Include TAF

Data at: 2025 UTC 14 Dec 2018

KPVW 142015Z AUTO 01011G16KT 10SM CLR 11/M18 A3025 RMK AO2 T01051182
KPVW 141955Z AUTO 36014G19KT 10SM CLR 10/M18 A3025 RMK AO2 T01001177
KPVW 141935Z AUTO 36014G19KT 10SM CLR 10/M16 A3026 RMK AO2 T00981161
KPVW 141915Z AUTO 01013G19KT 10SM CLR 09/M15 A3027 RMK AO2 T00891151
KPVW 141855Z AUTO 03016G21KT 10SM CLR 08/M15 A3027 RMK AO2 T00811154
KPVW 141835Z AUTO 01013G23KT 10SM CLR 08/M15 A3027 RMK AO2 T00771150
KPVW 141815Z AUTO 36013G18KT 10SM CLR 07/M13 A3028 RMK AO2 T00721133
KPVW 141755Z AUTO 36015G21KT 10SM CLR 06/M14 A3029 RMK AO2 T00641139 10065 21041
KPVW 141735Z AUTO 01017G27KT 10SM CLR 06/M14 A3030 RMK AO2 T00561139
KPVW 141715Z AUTO 36017G26KT 10SM CLR 05/M13 A3029 RMK AO2 T00511134
KPVW 141655Z AUTO 36021G24KT 10SM CLR 04/M13 A3029 RMK AO2 T00421126
KPVW 141635Z AUTO 01022G28KT 10SM CLR 04/M13 A3028 RMK AO2 T00351126
KPVW 141615Z AUTO 36018G25KT 10SM CLR 03/M12 A3028 RMK AO2 T00281117
KPVW 141555Z AUTO 36019G24KT 10SM CLR 02/M12 A3028 RMK AO2 T00171119
KPVW 141535Z AUTO 36017G23KT 10SM CLR 01/M12 A3027 RMK AO2 T00101120
KPVW 141515Z AUTO 36016G21KT 10SM CLR 00/M12 A3027 RMK AO2 T00001122
KPVW 141455Z AUTO 35015G20KT 10SM CLR M01/M12 A3026 RMK AO2 T10111123
KPVW 141435Z AUTO 35015G19KT 10SM CLR M02/M13 A3026 RMK AO2 T10201126
KPVW 141415Z AUTO 35014KT 10SM CLR M03/M12 A3025 RMK AO2 T10261125
KPVW 141355Z AUTO 35013G18KT 10SM CLR M03/M12 A3024 RMK AO2 T10351125
KPVW 141335Z AUTO 34013KT 10SM CLR M04/M12 A3024 RMK AO2 T10401121
KPVW 141315Z AUTO 34011G16KT 10SM CLR M04/M12 A3024 RMK AO2 T10371122
KPVW 141255Z AUTO 34011KT 10SM CLR M04/M12 A3023 RMK AO2 T10401120
KPVW 141235Z AUTO 34014G18KT 10SM CLR M04/M12 A3023 RMK AO2 T10401117
KPVW 141215Z AUTO 34016KT 10SM CLR M04/M12 A3022 RMK AO2 LTG DSNT E T10371118
KPVW 141155Z AUTO 34016G24KT 10SM CLR M04/M12 A3020 RMK AO2 T10361118 11007 21040
KPVW 141135Z AUTO 34014G19KT 10SM CLR M04/M12 A3021 RMK AO2 T10391116
KPVW 141115Z AUTO 34016G22KT 10SM CLR M04/M11 A3020 RMK AO2 T10371115
KPVW 141055Z AUTO 34019G26KT 10SM CLR M03/M11 A3020 RMK AO2 T10311115
KPVW 141035Z AUTO 34017G22KT 10SM CLR M03/M11 A3019 RMK AO2 T10341115
KPVW 141015Z AUTO 33015KT 10SM CLR M03/M11 A3020 RMK AO2 T10321115
KPVW 140955Z AUTO 34013KT 10SM CLR M03/M11 A3020 RMK AO2 T10291115
KPVW 140935Z AUTO 34015G19KT 10SM CLR M03/M11 A3020 RMK AO2 T10271113
KPVW 140915Z AUTO 35014G18KT 10SM CLR M03/M11 A3020 RMK AO2 T10261111
KPVW 140855Z AUTO 35013KT 10SM CLR M02/M11 A3020 RMK AO2 T10251110
KPVW 140835Z AUTO 35012G19KT 10SM CLR M02/M11 A3020 RMK AO2 T10231110
KPVW 140815Z AUTO 35014G21KT 10SM CLR M02/M11 A3020 RMK AO2 T10221108
KPVW 140755Z AUTO 34014G19KT 10SM CLR M02/M11 A3019 RMK AO2 T10201107
KPVW 140735Z AUTO 34014G21KT 10SM CLR M02/M11 A3018 RMK AO2 T10201106
KPVW 140715Z AUTO 34015G20KT 10SM CLR M02/M11 A3018 RMK AO2 T10161107
KPVW 140655Z AUTO 35014G19KT 10SM CLR M01/M11 A3018 RMK AO2 T10151106
KPVW 140635Z AUTO 35015KT 10SM CLR M01/M10 A3018 RMK AO2 T10151105
KPVW 140615Z AUTO 34013G18KT 10SM CLR M01/M10 A3018 RMK AO2 T10131105
KPVW 140555Z AUTO 35016G21KT 10SM CLR M01/M10 A3018 RMK AO2 T10071105 10048 21007 400741007
KPVW 140535Z AUTO 34014KT 10SM CLR M01/M10 A3018 RMK AO2 T10061105
KPVW 140515Z AUTO 35014G19KT 10SM CLR 00/M10 A3017 RMK AO2 T10011105
KPVW 140455Z AUTO 35016G21KT 10SM CLR 00/M10 A3016 RMK AO2 T00001103
KPVW 140435Z AUTO 35014G20KT 10SM CLR 00/M10 A3016 RMK AO2 T00041103
KPVW 140415Z AUTO 35013G18KT 10SM CLR 01/M10 A3016 RMK AO2 T00101105
KPVW 140355Z AUTO 35013KT 10SM CLR 01/M10 A3015 RMK AO2 T00121105
KPVW 140335Z AUTO 35014G20KT 10SM CLR 01/M11 A3015 RMK AO2 T00131106
KPVW 140315Z AUTO 36015G22KT 10SM CLR 02/M11 A3014 RMK AO2 T00171107
KPVW 140255Z AUTO 36015G21KT 10SM CLR 02/M11 A3013 RMK AO2 T00201107
KPVW 140235Z AUTO 36016G22KT 10SM CLR 02/M11 A3013 RMK AO2 T00241109
KPVW 140215Z AUTO 35017G24KT 10SM CLR 03/M11 A3012 RMK AO2 T00261108
KPVW 140155Z AUTO 36020G29KT 10SM CLR 03/M11 A3011 RMK AO2 T00301110
KPVW 140135Z AUTO 35018G29KT 10SM CLR 03/M11 A3010 RMK AO2 T00341110
KPVW 140115Z AUTO 36019G27KT 10SM CLR 04/M11 A3009 RMK AO2 T00361110
KPVW 140055Z AUTO 36018G25KT 10SM CLR 04/M11 A3008 RMK AO2 T00361110
KPVW 140035Z AUTO 36019G27KT 10SM CLR 04/M11 A3007 RMK AO2 T00401111
KPVW 140015Z AUTO 36019G26KT 10SM CLR 04/M11 A3006 RMK AO2 T00421111
KPVW 132355Z AUTO 36024G30KT 10SM CLR 05/M11 A3005 RMK AO2 T00491115 10071 20045
KPVW 132335Z AUTO 36024G33KT 10SM CLR 05/M11 A3004 RMK AO2 T00521115
KPVW 132315Z AUTO 36026G39KT 10SM CLR 06/M12 A3003 RMK AO2 T00591118
KPVW 132255Z AUTO 36027G36KT 10SM CLR 06/M11 A3002 RMK AO2 T00631113
KPVW 132235Z AUTO 36031G40KT 10SM CLR 07/M11 A3000 RMK AO2 T00671111
KPVW 132215Z AUTO 35032G42KT 10SM CLR 07/M11 A2999 RMK AO2 T00701110
KPVW 132155Z AUTO 36036G42KT 10SM CLR 07/M11 A2998 RMK AO2 T00701107
KPVW 132135Z AUTO 36034G44KT 10SM CLR 07/M10 A2998 RMK AO2 T00701105
KPVW 132115Z AUTO 36031G48KT 10SM CLR 07/M10 A2998 RMK AO2 LTG DSNT E T00701099
KPVW 132055Z AUTO 36035G44KT 10SM SCT085 07/M10 A2997 RMK AO2 LTG DSNT E T00651097
KPVW 132035Z AUTO 36034G48KT 7SM SCT065 BKN085 06/M09 A2997 RMK AO2 LTG DSNT E T00571092
KPVW 132015Z AUTO 36032G41KT 10SM SCT065 SCT075 BKN085 05/M09 A2997 RMK AO2 T00501086
KPVW 131955Z AUTO 35032G42KT 10SM CLR 05/M08 A2997 RMK AO2 LTG DSNT E T00541076
KPVW 131935Z AUTO 01035G44KT 10SM CLR 06/M08 A2997 RMK AO2 LTG DSNT E T00611081
KPVW 131915Z AUTO 36031G44KT 10SM SCT075 06/M07 A2997 RMK AO2 LTG DSNT E T00561071
KPVW 131855Z AUTO 01035G45KT 10SM SCT060 BKN070 BKN080 05/M06 A2997 RMK AO2 LTG DSNT E T00521064
KPVW 131835Z AUTO 01036G46KT 10SM OVC050 05/M06 A2997 RMK AO2 T00511061
KPVW 131815Z AUTO 36037G48KT 10SM OVC050 05/M06 A2998 RMK AO2 LTG DSNT E T00461060
KPVW 131755Z AUTO 01035G43KT 10SM BKN050 OVC065 05/M06 A2998 RMK AO2 T00471059 10047 20028
KPVW 131735Z AUTO 01035G47KT 10SM OVC065 05/M06 A2997 RMK AO2 T00461060
KPVW 131715Z AUTO 01034G49KT 10SM BKN065 BKN095 04/M06 A2997 RMK AO2 T00421061
KPVW 131655Z AUTO 01030G52KT 10SM SCT035 SCT042 BKN095 04/M06 A2996 RMK AO2 LTG DSNT E T00411057
KPVW 131635Z AUTO 01037G49KT 10SM SCT035 BKN044 OVC050 04/M05 A2995 RMK AO2 LTG DSNT E T00381050
KPVW 131615Z AUTO 01036G51KT 10SM BKN039 OVC045 04/M04 A2994 RMK AO2 T00391045
KPVW 131555Z AUTO 01041G55KT 10SM BKN036 OVC046 04/M04 A2992 RMK AO2 T00371043
KPVW 131535Z AUTO 02035G47KT 10SM OVC034 04/M03 A2992 RMK AO2 T00351035
KPVW 131515Z AUTO 01034G48KT 10SM BKN032 OVC041 03/M03 A2990 RMK AO2 LTG DSNT E T00331031
KPVW 131455Z AUTO 01035G46KT 10SM BKN032 BKN041 BKN049 03/M03 A2989 RMK AO2 T00331031
KPVW 131435Z AUTO 01029G40KT 10SM SCT034 SCT065 03/M03 A2988 RMK AO2 T00321033
KPVW 131415Z AUTO 02029G48KT 10SM SCT065 03/M03 A2986 RMK AO2 T00301032
KPVW 131355Z AUTO 02034G43KT 10SM SCT050 OVC065 03/M03 A2984 RMK AO2 T00301026
KPVW 131335Z AUTO 02024G35KT 10SM SCT029 BKN070 OVC075 03/M02 A2985 RMK AO2 T00281021
KPVW 131315Z AUTO 02026G44KT 10SM SCT025 BKN080 OVC110 03/M02 A2984 RMK AO2 T00281021
KPVW 131255Z AUTO 01028G37KT 10SM SCT025 OVC110 03/M02 A2982 RMK AO2 T00301018
KPVW 131235Z AUTO 02025G39KT 10SM SCT025 OVC095 03/M02 A2981 RMK AO2 T00311016
KPVW 131215Z AUTO 01032G42KT 10SM SCT027 SCT070 OVC085 03/M02 A2978 RMK AO2 T00311017
KPVW 131155Z AUTO 01031G40KT 10SM OVC075 03/M02 A2978 RMK AO2 T00321021 10074 20031
KPVW 131135Z AUTO 01027G39KT 10SM OVC080 03/M03 A2975 RMK AO2 T00311027
KPVW 131115Z AUTO 01027G40KT 10SM OVC085 03/M03 A2974 RMK AO2 T00341029
KPVW 131055Z AUTO 01030G39KT 10SM SCT016 BKN070 OVC085 03/M01 A2972 RMK AO2 T00321013
KPVW 131035Z AUTO 01028G35KT 10SM BKN018 BKN055 OVC080 04/00 A2970 RMK AO2 T00350000
KPVW 131015Z AUTO 36024G38KT 10SM SCT075 OVC090 04/M01 A2968 RMK AO2 LTG DSNT E AND S T00421006
KPVW 130955Z AUTO 36032G38KT 10SM BKN100 OVC120 06/M03 A2966 RMK AO2 T00631029
KPVW 130935Z AUTO 36024G32KT 10SM SCT120 07/M05 A2963 RMK AO2 T00721046
KPVW 130915Z AUTO 33019G27KT 10SM CLR 07/M02 A2963 RMK AO2 LTG DSNT E T00711021
KPVW 130855Z AUTO 32015G19KT 10SM CLR 07/M01 A2963 RMK AO2 LTG DSNT E T00671006
KPVW 130835Z AUTO 29012KT 10SM CLR 06/01 A2963 RMK AO2 T00550005 PNO